LJMB/MBX METAR and TAF weather

Enter ICAO airport designator
Station Type Date Time Source
LJMB METAR 2020/10/20 17:30 UTC NOAA

LJMB 201730Z 16004KT 140V200 CAVOK 11/08 Q1021


Station Type Date Time Source
LJMB Decoded METAR 2020/10/20 17:30 UTC NOAA

Maribor / Slivnica, Slovenia (LJMB) 46-29N 015-41E 265M
Oct 20, 2020 - 01:30 PM EDT / 2020.10.20 1730 UTC
Wind: from the SSE (160 degrees) at 5 MPH (4 KT) (direction variable):0
Visibility: greater than 7 mile(s):0
Temperature: 51 F (11 C)
Dew Point: 46 F (8 C)
Relative Humidity: 81%
Pressure (altimeter): 30.15 in. Hg (1021 hPa)
ob: LJMB 201730Z 16004KT 140V200 CAVOK 11/08 Q1021
cycle: 17

Station Type Date Time Source
LJMB TAF 2020/10/20 18:06 UTC NOAA

TAF LJMB 201700Z 2018/2118 18006KT 9999 FEW025
TEMPO 2106/2118 22022KT

Example: see airport list